Time;durP1;ratioP1;P1;durP2;ratioP2;P2;SDS_P1;SDS_P2;PMS_P1;PMS_P2;Temp;Humidity;BMP_temperature;BMP_pressure;BME280_temperature;BME280_humidity;BME280_pressure;Samples;Min_cycle;Max_cycle;Signal;HPM_P1;HPM_P2
2021/01/07 00:00:42;;;;;;;11.13;5.63;;;3.10;72.40;;;;;;5045437;28;20551;-67
2021/01/07 00:03:08;;;;;;;11.53;5.93;;;3.10;72.60;;;;;;5079942;23;20236;-67
2021/01/07 00:05:34;;;;;;;13.53;6.33;;;3.10;72.40;;;;;;5068100;23;20217;-67
2021/01/07 00:08:00;;;;;;;12.40;6.37;;;3.10;72.40;;;;;;5058940;28;20720;-67
2021/01/07 00:10:26;;;;;;;12.83;6.87;;;3.10;71.70;;;;;;5073342;23;20218;-67
2021/01/07 00:12:52;;;;;;;12.07;5.63;;;;;;;;;;5067746;28;20181;-67
2021/01/07 00:15:18;;;;;;;11.40;6.83;;;3.10;71.80;;;;;;5076018;22;20234;-67
2021/01/07 00:17:43;;;;;;;14.43;5.57;;;3.10;71.90;;;;;;5083189;23;20281;-67
2021/01/07 00:20:11;;;;;;;11.10;6.80;;;3.20;71.90;;;;;;5084714;28;20196;-67
2021/01/07 00:22:37;;;;;;;11.83;6.83;;;3.10;71.60;;;;;;5093141;22;20232;-67
2021/01/07 00:25:08;;;;;;;14.00;6.97;;;3.10;71.90;;;;;;5096643;22;20583;-67
2021/01/07 00:27:34;;;;;;;13.57;7.83;;;3.10;71.70;;;;;;5097767;23;20697;-67
2021/01/07 00:30:00;;;;;;;9.97;5.87;;;;;;;;;;5086986;28;20200;-67
2021/01/07 00:32:26;;;;;;;10.23;6.00;;;;;;;;;;5076743;22;20711;-67
2021/01/07 00:34:51;;;;;;;13.00;6.83;;;2.90;73.00;;;;;;5060960;28;20672;-68
2021/01/07 00:37:17;;;;;;;8.37;5.17;;;;;;;;;;5075287;23;20233;-67
2021/01/07 00:39:43;;;;;;;12.40;7.67;;;;;;;;;;5062530;28;20185;-67
2021/01/07 00:42:09;;;;;;;8.77;5.63;;;;;;;;;;5063913;23;20230;-66
2021/01/07 00:44:35;;;;;;;14.03;7.57;;;2.90;72.10;;;;;;5086034;22;20663;-67
2021/01/07 00:47:01;;;;;;;11.03;6.63;;;2.90;72.90;;;;;;5098699;22;20232;-67
2021/01/07 00:49:27;;;;;;;9.50;6.17;;;;;;;;;;5082302;28;20212;-66
2021/01/07 00:51:53;;;;;;;6.77;3.97;;;2.90;70.50;;;;;;5080229;23;20322;-67
2021/01/07 00:54:19;;;;;;;7.67;4.07;;;2.90;70.50;;;;;;5087646;23;20218;-66
2021/01/07 00:56:45;;;;;;;14.03;7.43;;;;;;;;;;5090221;22;20784;-66
2021/01/07 00:59:11;;;;;;;14.37;7.80;;;2.90;70.50;;;;;;5073974;23;20240;-67
2021/01/07 01:01:44;;;;;;;14.77;6.97;;;3.00;70.40;;;;;;5070266;23;20230;-66
2021/01/07 01:04:10;;;;;;;14.80;6.87;;;3.00;68.80;;;;;;5071442;22;20287;-67
2021/01/07 01:06:35;;;;;;;13.80;7.50;;;3.00;68.80;;;;;;5088517;23;20286;-66
2021/01/07 01:09:02;;;;;;;14.53;8.00;;;3.00;68.60;;;;;;5098841;22;20686;-67
2021/01/07 01:11:28;;;;;;;11.23;6.07;;;2.90;68.50;;;;;;5096949;22;20931;-67
2021/01/07 01:13:54;;;;;;;12.33;6.83;;;2.90;68.00;;;;;;5093816;28;20209;-67
2021/01/07 01:16:20;;;;;;;10.90;6.03;;;;;;;;;;5080049;22;20233;-67
2021/01/07 01:18:46;;;;;;;11.27;6.17;;;2.90;68.80;;;;;;5057772;28;20218;-66
2021/01/07 01:21:15;;;;;;;5.77;4.10;;;2.90;68.10;;;;;;5083852;22;20239;-66
2021/01/07 01:23:41;;;;;;;12.13;6.90;;;2.90;67.80;;;;;;5073476;22;20233;-67
2021/01/07 01:26:07;;;;;;;11.37;6.37;;;2.90;67.30;;;;;;5094371;22;20614;-67
2021/01/07 01:28:33;;;;;;;11.57;5.63;;;;;;;;;;5090741;28;20228;-67
2021/01/07 01:30:58;;;;;;;11.90;6.60;;;2.80;67.60;;;;;;5079529;23;20229;-67
2021/01/07 01:33:24;;;;;;;11.33;5.33;;;2.80;68.00;;;;;;5087549;23;20627;-67
2021/01/07 01:35:50;;;;;;;10.67;5.97;;;;;;;;;;5067485;28;20192;-67
2021/01/07 01:38:15;;;;;;;11.83;6.77;;;2.90;67.80;;;;;;5088157;23;20224;-67
2021/01/07 01:40:41;;;;;;;11.80;5.60;;;2.90;67.60;;;;;;5090178;28;20197;-67
2021/01/07 01:43:07;;;;;;;8.10;4.93;;;2.90;68.10;;;;;;5081463;22;20261;-67
2021/01/07 01:45:33;;;;;;;11.60;6.50;;;2.90;67.10;;;;;;5076382;23;20228;-66
2021/01/07 01:47:59;;;;;;;10.23;6.50;;;2.90;67.70;;;;;;5067747;22;20226;-67
2021/01/07 01:50:25;;;;;;;14.57;6.83;;;;;;;;;;5062840;28;22085;-67
2021/01/07 01:52:51;;;;;;;8.00;4.87;;;;;;;;;;5089705;23;20243;-67
2021/01/07 01:55:16;;;;;;;11.57;5.60;;;2.80;67.60;;;;;;5087606;28;20405;-67
2021/01/07 01:57:44;;;;;;;6.83;4.20;;;2.70;68.00;;;;;;5089470;28;20185;-67
2021/01/07 02:00:11;;;;;;;6.30;3.70;;;2.70;67.60;;;;;;5096664;23;20241;-66
2021/01/07 02:02:37;;;;;;;6.23;3.43;;;;;;;;;;5092817;28;20272;-66
2021/01/07 02:05:03;;;;;;;10.90;6.80;;;;;;;;;;5073518;22;20308;-67
2021/01/07 02:07:30;;;;;;;12.00;5.67;;;2.70;68.30;;;;;;5063086;28;20217;-67
2021/01/07 02:09:56;;;;;;;6.77;3.90;;;2.70;67.80;;;;;;5069429;23;20228;-67
2021/01/07 02:12:22;;;;;;;4.77;3.30;;;;;;;;;;5087389;23;20237;-67
2021/01/07 02:14:48;;;;;;;10.70;5.43;;;2.60;67.90;;;;;;5070279;28;20189;-67
2021/01/07 02:17:15;;;;;;;11.83;7.00;;;;;;;;;;5091748;23;20734;-67
2021/01/07 02:19:41;;;;;;;7.43;3.70;;;;;;;;;;5078186;28;20288;-66
2021/01/07 02:22:07;;;;;;;9.50;4.33;;;2.60;67.30;;;;;;5081058;28;20185;-66
2021/01/07 02:24:33;;;;;;;9.73;4.50;;;2.60;67.40;;;;;;5091490;22;20241;-67
2021/01/07 02:27:10;;;;;;;13.10;6.27;;;2.60;67.20;;;;;;5111264;23;20235;-67
2021/01/07 02:29:37;;;;;;;9.50;5.20;;;2.50;67.40;;;;;;5110937;28;20301;-66
2021/01/07 02:32:06;;;;;;;8.30;4.83;;;2.60;66.90;;;;;;5102493;22;20232;-66
2021/01/07 02:34:32;;;;;;;7.50;4.77;;;;;;;;;;5079193;22;21062;-66
2021/01/07 02:36:58;;;;;;;7.43;4.87;;;;;;;;;;5063552;28;20368;-66
2021/01/07 02:39:24;;;;;;;11.00;4.93;;;2.50;66.70;;;;;;5083830;23;20584;-66
2021/01/07 02:41:54;;;;;;;5.83;3.23;;;2.50;67.00;;;;;;5075965;22;20244;-66
2021/01/07 02:44:21;;;;;;;11.40;5.90;;;2.50;67.00;;;;;;5077593;28;20272;-66
2021/01/07 02:46:48;;;;;;;5.13;2.90;;;2.50;67.30;;;;;;5093420;23;20372;-66
2021/01/07 02:49:14;;;;;;;6.63;4.07;;;;;;;;;;5108096;22;20293;-67
2021/01/07 02:51:39;;;;;;;13.23;6.07;;;2.50;66.60;;;;;;5105904;28;20189;-67
2021/01/07 02:54:05;;;;;;;8.53;4.87;;;2.50;67.10;;;;;;5102956;28;20194;-67
2021/01/07 02:56:32;;;;;;;10.03;5.80;;;2.60;66.50;;;;;;5082334;22;20245;-67
2021/01/07 02:58:58;;;;;;;9.13;4.17;;;;;;;;;;5064740;28;20201;-67
2021/01/07 03:01:24;;;;;;;5.07;2.50;;;2.50;65.90;;;;;;5068208;22;20234;-67
2021/01/07 03:03:49;;;;;;;3.90;2.23;;;2.50;65.90;;;;;;5090343;23;20260;-68
2021/01/07 03:06:15;;;;;;;7.37;5.07;;;2.40;66.70;;;;;;5072692;22;20244;-67
2021/01/07 03:08:41;;;;;;;3.53;1.80;;;2.50;66.10;;;;;;5076576;23;20225;-68
2021/01/07 03:11:07;;;;;;;7.67;4.37;;;2.50;65.90;;;;;;5079819;28;20515;-68
2021/01/07 03:13:33;;;;;;;7.27;3.97;;;2.50;66.00;;;;;;5057118;23;20219;-67
2021/01/07 03:15:58;;;;;;;4.87;2.53;;;2.50;65.90;;;;;;5048274;28;20212;-68
2021/01/07 03:18:24;;;;;;;8.37;4.07;;;2.50;65.90;;;;;;5049289;28;20193;-68
2021/01/07 03:20:49;;;;;;;5.07;4.03;;;2.40;65.80;;;;;;5065103;23;20265;-67
2021/01/07 03:23:15;;;;;;;8.57;4.10;;;;;;;;;;5069343;22;20283;-68
2021/01/07 03:25:41;;;;;;;7.03;4.43;;;;;;;;;;5065065;23;22159;-67
2021/01/07 03:28:07;;;;;;;9.67;4.73;;;;;;;;;;5066140;28;20221;-68
2021/01/07 03:30:33;;;;;;;7.43;3.97;;;;;;;;;;5074748;23;20233;-68
2021/01/07 03:32:59;;;;;;;6.33;3.87;;;2.40;66.30;;;;;;5075444;23;20240;-68
2021/01/07 03:35:25;;;;;;;5.07;3.03;;;;;;;;;;5086888;23;20750;-68
2021/01/07 03:37:51;;;;;;;6.80;2.53;;;;;;;;;;5068710;22;20237;-68
2021/01/07 03:40:16;;;;;;;8.47;5.20;;;2.40;65.90;;;;;;5053834;23;20719;-67
2021/01/07 03:42:42;;;;;;;12.47;4.83;;;;;;;;;;5045996;28;20186;-67
2021/01/07 03:45:08;;;;;;;7.53;4.37;;;2.40;65.90;;;;;;5086553;23;20225;-65
2021/01/07 03:47:34;;;;;;;7.00;3.97;;;2.30;65.80;;;;;;5088112;28;20238;-68
2021/01/07 03:50:00;;;;;;;8.10;3.73;;;;;;;;;;5093036;23;20237;-65
2021/01/07 03:52:26;;;;;;;10.10;3.63;;;;;;;;;;5081671;28;20216;-66
2021/01/07 03:54:52;;;;;;;9.17;4.07;;;;;;;;;;5094142;22;20278;-67
2021/01/07 03:57:17;;;;;;;5.30;2.43;;;2.40;65.90;;;;;;5089450;22;20278;-66
2021/01/07 03:59:43;;;;;;;7.23;4.20;;;;;;;;;;5086354;28;20580;-66
2021/01/07 04:02:09;;;;;;;6.03;3.40;;;;;;;;;;5081143;23;20265;-66
2021/01/07 04:04:35;;;;;;;6.70;3.83;;;2.40;66.60;;;;;;5071014;23;20577;-67
2021/01/07 04:07:01;;;;;;;4.07;3.40;;;;;;;;;;5081422;28;20194;-67
2021/01/07 04:09:27;;;;;;;8.53;4.43;;;;;;;;;;5062638;28;20266;-67
2021/01/07 04:11:53;;;;;;;6.57;4.70;;;;;;;;;;5088376;22;20224;-67
2021/01/07 04:14:19;;;;;;;9.87;4.33;;;;;;;;;;5079385;22;20596;-67
2021/01/07 04:16:44;;;;;;;14.20;5.20;;;2.40;67.50;;;;;;5059251;28;20225;-66
2021/01/07 04:19:10;;;;;;;7.00;4.20;;;;;;;;;;5066172;28;20213;-67
2021/01/07 04:21:45;;;;;;;9.17;4.20;;;2.30;67.70;;;;;;5055557;23;20260;-67
2021/01/07 04:24:11;;;;;;;6.57;2.80;;;2.40;67.20;;;;;;5060096;22;20244;-67
2021/01/07 04:26:39;;;;;;;4.07;1.63;;;2.30;66.30;;;;;;5071327;23;20278;-67
2021/01/07 04:29:05;;;;;;;10.10;5.10;;;2.40;66.70;;;;;;5078263;22;20328;-66
2021/01/07 04:31:31;;;;;;;9.20;4.90;;;2.40;67.30;;;;;;5068951;22;20320;-66
2021/01/07 04:33:57;;;;;;;4.10;2.70;;;;;;;;;;5089029;23;20239;-67
2021/01/07 04:36:23;;;;;;;12.67;3.70;;;;;;;;;;5085902;22;20251;-66
2021/01/07 04:38:49;;;;;;;7.97;4.27;;;;;;;;;;5085225;28;20199;-67
2021/01/07 04:41:15;;;;;;;4.03;2.00;;;;;;;;;;5071388;23;20229;-67
2021/01/07 04:43:40;;;;;;;7.70;5.20;;;2.40;66.90;;;;;;5087559;23;20240;-67
2021/01/07 04:46:06;;;;;;;10.23;4.97;;;;;;;;;;5081519;28;20629;-66
2021/01/07 04:48:34;;;;;;;5.37;2.60;;;2.40;66.60;;;;;;5092675;23;20231;-67
2021/01/07 04:51:00;;;;;;;11.23;5.10;;;;;;;;;;5087836;22;20264;-66
2021/01/07 04:53:26;;;;;;;12.90;5.87;;;2.30;69.50;;;;;;5084760;22;20339;-67
2021/01/07 04:55:52;;;;;;;14.13;6.80;;;;;;;;;;5068032;23;20245;-67
2021/01/07 04:58:17;;;;;;;11.30;6.10;;;2.30;70.80;;;;;;5072763;22;20225;-67
2021/01/07 05:00:43;;;;;;;11.60;6.17;;;2.30;71.50;;;;;;5063934;28;20251;-67
2021/01/07 05:03:09;;;;;;;13.87;6.63;;;;;;;;;;5073925;23;20263;-67
2021/01/07 05:05:35;;;;;;;11.03;5.70;;;2.30;72.00;;;;;;5057416;28;20220;-67
2021/01/07 05:08:04;;;;;;;9.63;4.90;;;2.30;72.10;;;;;;5086120;22;20228;-67
2021/01/07 05:10:30;;;;;;;10.00;5.30;;;2.20;72.20;;;;;;5070405;28;20192;-66
2021/01/07 05:12:56;;;;;;;8.00;5.43;;;;;;;;;;5081047;23;20312;-67
2021/01/07 05:15:22;;;;;;;11.27;5.93;;;;;;;;;;5068167;28;20268;-67
2021/01/07 05:17:48;;;;;;;9.60;5.57;;;;;;;;;;5067089;28;20182;-67
2021/01/07 05:20:14;;;;;;;5.43;2.77;;;2.20;71.80;;;;;;5068147;22;20241;-67
2021/01/07 05:22:42;;;;;;;7.77;5.03;;;2.20;71.80;;;;;;5086800;23;20229;-67
2021/01/07 05:25:13;;;;;;;9.03;5.20;;;2.20;71.30;;;;;;5071171;22;20234;-67
2021/01/07 05:27:40;;;;;;;13.17;6.83;;;2.10;71.60;;;;;;5069766;28;20213;-67
2021/01/07 05:30:08;;;;;;;8.20;5.03;;;2.10;72.10;;;;;;5090568;22;20245;-67
2021/01/07 05:32:35;;;;;;;6.97;3.50;;;2.20;68.90;;;;;;5091018;22;20252;-67
2021/01/07 05:35:03;;;;;;;8.83;4.50;;;2.30;68.20;;;;;;5087597;28;20707;-66
2021/01/07 05:37:33;;;;;;;8.20;4.90;;;2.30;67.50;;;;;;5088890;23;20236;-66
2021/01/07 05:39:59;;;;;;;8.80;4.30;;;2.30;68.20;;;;;;5080488;22;20265;-67
2021/01/07 05:42:25;;;;;;;10.57;4.67;;;2.30;68.80;;;;;;5083845;28;20695;-66
2021/01/07 05:44:51;;;;;;;10.70;4.53;;;2.30;69.20;;;;;;5096786;22;20638;-66
2021/01/07 05:47:27;;;;;;;10.37;5.40;;;2.20;69.20;;;;;;5090181;28;20227;-67
2021/01/07 05:49:54;;;;;;;9.53;5.17;;;;;;;;;;5064854;22;20245;-67
2021/01/07 05:52:21;;;;;;;6.87;4.37;;;2.20;68.70;;;;;;5042885;28;20190;-67
2021/01/07 05:54:51;;;;;;;12.00;5.00;;;2.20;69.30;;;;;;5077670;23;20228;-67
2021/01/07 05:57:21;;;;;;;8.17;5.03;;;2.20;69.90;;;;;;5083920;28;20228;-67
2021/01/07 05:59:48;;;;;;;11.40;5.53;;;2.10;70.40;;;;;;5089916;22;20230;-66
2021/01/07 06:02:16;;;;;;;11.10;4.63;;;2.10;71.00;;;;;;5054999;22;20328;-66
2021/01/07 06:04:48;;;;;;;10.03;4.23;;;2.10;71.90;;;;;;5064173;22;20317;-66
2021/01/07 06:07:16;;;;;;;10.10;5.40;;;2.10;72.20;;;;;;5065460;22;20264;-67
2021/01/07 06:09:45;;;;;;;9.57;4.70;;;2.10;73.00;;;;;;5079232;23;20327;-67
2021/01/07 06:12:12;;;;;;;10.90;6.13;;;2.10;73.80;;;;;;5084613;28;20189;-67
2021/01/07 06:14:41;;;;;;;6.13;3.80;;;2.10;74.00;;;;;;5089273;22;20228;-66
2021/01/07 06:17:07;;;;;;;12.93;6.47;;;2.00;73.90;;;;;;5090276;22;20323;-67
2021/01/07 06:19:37;;;;;;;8.03;4.73;;;2.10;74.80;;;;;;5073041;23;20670;-67
2021/01/07 06:22:14;;;;;;;11.77;5.43;;;2.10;75.30;;;;;;5077061;23;20248;-67
2021/01/07 06:24:42;;;;;;;7.67;3.73;;;2.00;75.50;;;;;;5073991;22;20664;-67
2021/01/07 06:27:32;;;;;;;10.80;4.53;;;2.10;76.10;;;;;;5059954;28;20546;-66
2021/01/07 06:30:17;;;;;;;11.03;5.57;;;2.00;76.10;;;;;;5091905;22;20241;-67
2021/01/07 06:32:45;;;;;;;10.77;5.20;;;2.10;76.50;;;;;;5082839;28;20248;-66
2021/01/07 06:35:16;;;;;;;15.23;6.13;;;2.10;76.80;;;;;;5072285;22;20247;-66
2021/01/07 06:37:42;;;;;;;8.07;3.37;;;;;;;;;;5073062;23;20649;-67
2021/01/07 06:40:12;;;;;;;12.03;6.90;;;2.00;77.20;;;;;;5080334;28;20197;-67
2021/01/07 06:42:41;;;;;;;8.77;5.37;;;2.10;77.20;;;;;;5054477;22;20250;-67
2021/01/07 06:45:08;;;;;;;13.00;3.20;;;2.10;77.80;;;;;;5057161;23;20226;-68
2021/01/07 06:47:36;;;;;;;9.80;5.27;;;2.10;78.00;;;;;;5046098;28;20662;-68
2021/01/07 06:50:03;;;;;;;10.20;5.53;;;2.10;78.10;;;;;;5031744;23;20764;-68
2021/01/07 06:52:49;;;;;;;9.17;5.93;;;2.10;78.10;;;;;;5061513;22;20326;-68
2021/01/07 06:55:20;;;;;;;9.17;5.67;;;2.00;78.20;;;;;;5071866;23;20326;-69
2021/01/07 06:57:47;;;;;;;14.00;6.77;;;2.10;78.40;;;;;;5071912;23;20310;-67
2021/01/07 07:00:15;;;;;;;8.13;4.90;;;2.00;78.40;;;;;;5041227;23;20238;-66
2021/01/07 07:02:56;;;;;;;12.23;8.07;;;2.00;78.50;;;;;;5076918;23;20248;-66
2021/01/07 07:05:23;;;;;;;15.00;7.20;;;2.00;78.50;;;;;;5071989;22;20691;-68
2021/01/07 07:08:12;;;;;;;11.07;6.47;;;2.10;78.70;;;;;;5054361;28;20242;-67
2021/01/07 07:10:38;;;;;;;11.73;6.30;;;;;;;;;;5039340;22;20245;-67
2021/01/07 07:13:18;;;;;;;11.03;6.40;;;2.10;77.80;;;;;;5072526;23;20245;-68
2021/01/07 07:15:45;;;;;;;14.33;7.00;;;2.10;78.10;;;;;;5072539;22;20310;-66
2021/01/07 07:18:11;;;;;;;15.10;7.37;;;2.10;78.10;;;;;;5071552;23;20240;-66
2021/01/07 07:20:43;;;;;;;9.73;6.47;;;2.10;78.10;;;;;;5065163;28;20177;-67
2021/01/07 07:23:17;;;;;;;10.90;5.90;;;2.10;78.10;;;;;;5057016;22;20324;-66
2021/01/07 07:25:49;;;;;;;11.93;6.40;;;2.10;78.10;;;;;;5062994;22;20271;-66
2021/01/07 07:28:15;;;;;;;12.20;5.63;;;2.10;78.40;;;;;;5059988;28;20214;-66
2021/01/07 07:30:41;;;;;;;11.53;6.40;;;;;;;;;;5071287;22;20253;-67
2021/01/07 07:33:06;;;;;;;13.37;6.57;;;2.10;78.10;;;;;;5059688;28;20273;-66
2021/01/07 07:35:34;;;;;;;4.37;3.87;;;2.10;77.40;;;;;;5082371;23;20339;-66
2021/01/07 07:38:00;;;;;;;13.03;7.00;;;2.20;78.10;;;;;;5081140;28;20196;-67
2021/01/07 07:40:37;;;;;;;9.80;6.10;;;2.20;77.90;;;;;;5094323;22;20247;-67
2021/01/07 07:43:04;;;;;;;6.47;4.00;;;2.20;76.70;;;;;;5071823;22;20706;-66
2021/01/07 07:45:33;;;;;;;4.37;2.37;;;2.20;77.10;;;;;;5067413;28;20270;-66
2021/01/07 07:47:59;;;;;;;5.50;2.57;;;2.20;76.80;;;;;;5055825;28;20786;-66
2021/01/07 07:50:30;;;;;;;12.47;6.90;;;2.20;77.50;;;;;;5070252;23;20259;-65
2021/01/07 07:53:09;;;;;;;9.43;6.10;;;2.20;77.00;;;;;;5065385;28;20265;-65
2021/01/07 07:55:35;;;;;;;12.20;6.50;;;2.20;76.80;;;;;;5069845;23;20560;-65
2021/01/07 07:58:08;;;;;;;9.97;5.33;;;2.20;76.70;;;;;;5088053;22;20319;-65
2021/01/07 08:00:34;;;;;;;10.10;4.13;;;2.20;76.50;;;;;;5084478;28;20181;-66
2021/01/07 08:03:00;;;;;;;16.80;7.17;;;2.20;76.60;;;;;;5088872;23;20248;-66
2021/01/07 08:05:27;;;;;;;13.37;6.77;;;2.20;77.10;;;;;;5082943;28;20197;-66
2021/01/07 08:07:54;;;;;;;6.80;3.60;;;2.20;76.60;;;;;;5074613;28;20201;-66
2021/01/07 08:10:20;;;;;;;6.47;3.53;;;2.30;76.90;;;;;;5101867;22;20225;-66
2021/01/07 08:12:46;;;;;;;8.90;5.27;;;2.30;76.00;;;;;;5080512;28;20548;-66
2021/01/07 08:15:12;;;;;;;6.93;4.60;;;2.30;76.60;;;;;;5074384;22;20237;-66
2021/01/07 08:17:38;;;;;;;8.37;4.30;;;2.30;76.50;;;;;;5062143;23;20233;-65
2021/01/07 08:20:04;;;;;;;9.07;4.37;;;2.30;76.70;;;;;;5064425;28;20656;-65
2021/01/07 08:22:31;;;;;;;8.77;5.00;;;;;;;;;;5058208;23;20241;-65
2021/01/07 08:24:59;;;;;;;13.63;5.93;;;2.20;77.60;;;;;;5040773;28;20206;-65
2021/01/07 08:27:29;;;;;;;12.43;5.83;;;2.30;77.60;;;;;;5064851;22;20229;-66
2021/01/07 08:29:58;;;;;;;10.03;5.43;;;2.20;78.10;;;;;;5066730;22;20251;-66
2021/01/07 08:32:33;;;;;;;9.87;6.03;;;2.30;78.00;;;;;;5057599;28;20267;-66
2021/01/07 08:35:00;;;;;;;4.17;2.93;;;;;;;;;;5070429;23;20244;-66
2021/01/07 08:37:34;;;;;;;11.37;5.50;;;2.20;78.10;;;;;;5059838;28;20196;-66
2021/01/07 08:40:07;;;;;;;6.97;4.20;;;;;;;;;;5057936;28;20197;-66
2021/01/07 08:42:36;;;;;;;11.17;6.10;;;2.20;78.40;;;;;;5060186;22;20371;-66
2021/01/07 08:45:05;;;;;;;10.33;6.07;;;2.30;78.90;;;;;;5044976;28;20189;-66
2021/01/07 08:47:31;;;;;;;6.47;3.30;;;;;;;;;;5058771;23;20430;-66
2021/01/07 08:50:08;;;;;;;7.00;3.77;;;2.20;78.90;;;;;;5061438;28;20225;-66
2021/01/07 08:52:50;;;;;;;2.60;1.40;;;2.20;78.70;;;;;;5060044;28;20246;-66
2021/01/07 08:55:16;;;;;;;12.90;5.53;;;2.20;79.10;;;;;;5085643;22;20311;-66
2021/01/07 08:57:42;;;;;;;18.43;5.17;;;2.20;79.00;;;;;;5082553;28;20283;-66
2021/01/07 09:00:17;;;;;;;9.03;4.53;;;2.20;78.90;;;;;;5048725;22;648438;-66
2021/01/07 09:02:43;;;;;;;10.60;6.63;;;2.10;79.30;;;;;;5057645;28;20204;-66
2021/01/07 09:05:09;;;;;;;7.40;4.00;;;2.20;79.30;;;;;;5042356;28;20211;-66
2021/01/07 09:07:35;;;;;;;7.30;4.80;;;2.20;79.50;;;;;;5060138;23;20313;-67
2021/01/07 09:10:01;;;;;;;6.77;4.17;;;2.20;79.60;;;;;;5072911;22;20256;-66
2021/01/07 09:12:32;;;;;;;8.10;3.97;;;2.20;79.70;;;;;;5059842;28;20190;-66
2021/01/07 09:15:13;;;;;;;12.50;6.30;;;2.30;80.10;;;;;;5055487;22;20234;-67
2021/01/07 09:17:57;;;;;;;8.23;4.07;;;2.20;79.30;;;;;;5045742;28;20186;-66
2021/01/07 09:20:33;;;;;;;13.77;5.73;;;2.30;79.60;;;;;;5061203;23;20217;-67
2021/01/07 09:23:06;;;;;;;10.43;5.93;;;2.30;80.30;;;;;;5053745;28;20193;-67
2021/01/07 09:25:33;;;;;;;13.07;6.50;;;2.20;80.50;;;;;;5059251;28;20267;-65
2021/01/07 09:27:59;;;;;;;8.50;3.93;;;;;;;;;;5056317;28;20488;-66
2021/01/07 09:30:26;;;;;;;10.13;5.67;;;2.30;80.00;;;;;;5026222;23;20257;-66
2021/01/07 09:32:52;;;;;;;7.10;3.63;;;;;;;;;;5064772;22;20238;-66
2021/01/07 09:35:18;;;;;;;13.43;6.50;;;2.30;80.30;;;;;;5060851;28;20189;-66
2021/01/07 09:37:44;;;;;;;11.33;6.33;;;2.40;80.80;;;;;;5059081;28;20517;-66
2021/01/07 09:40:10;;;;;;;13.70;6.40;;;;;;;;;;5059438;23;20676;-66
2021/01/07 09:42:37;;;;;;;9.97;6.00;;;;;;;;;;5059003;28;20198;-66
2021/01/07 09:45:05;;;;;;;7.37;4.30;;;2.50;78.00;;;;;;5080648;22;20228;-66
2021/01/07 09:47:31;;;;;;;9.07;4.27;;;2.50;77.80;;;;;;5081554;28;20177;-66
2021/01/07 09:49:58;;;;;;;10.67;5.03;;;;;;;;;;5086514;22;20241;-65
2021/01/07 09:52:24;;;;;;;5.43;3.30;;;2.50;77.10;;;;;;5080195;28;20646;-65
2021/01/07 09:54:51;;;;;;;7.73;4.60;;;;;;;;;;5085079;28;20283;-65
2021/01/07 09:57:16;;;;;;;12.57;5.07;;;2.40;77.50;;;;;;5076039;22;20221;-66
2021/01/07 09:59:42;;;;;;;8.90;3.73;;;2.50;77.20;;;;;;5064741;28;20200;-66
2021/01/07 10:02:09;;;;;;;5.13;3.30;;;2.50;75.80;;;;;;5063212;28;20621;-66
2021/01/07 10:04:36;;;;;;;12.20;5.83;;;2.60;76.40;;;;;;5045353;22;20281;-66
2021/01/07 10:07:04;;;;;;;11.43;5.17;;;2.60;75.90;;;;;;5053326;28;20693;-65
2021/01/07 10:09:30;;;;;;;11.13;4.83;;;2.60;76.30;;;;;;5054884;28;20673;-66
2021/01/07 10:11:57;;;;;;;10.60;4.47;;;2.50;76.00;;;;;;5065040;22;20244;-66
2021/01/07 10:14:24;;;;;;;5.53;3.60;;;2.60;76.20;;;;;;5081778;22;20232;-65
2021/01/07 10:16:58;;;;;;;10.63;4.83;;;2.60;76.60;;;;;;5079000;28;20653;-66
2021/01/07 10:19:26;;;;;;;14.60;6.70;;;2.50;75.90;;;;;;5073521;23;20236;-66
2021/01/07 10:22:09;;;;;;;10.43;4.47;;;2.50;76.50;;;;;;5056640;22;20711;-66
2021/01/07 10:24:40;;;;;;;4.33;2.53;;;2.50;74.30;;;;;;5027572;23;20230;-67
2021/01/07 10:27:07;;;;;;;7.30;4.40;;;2.60;74.40;;;;;;5017933;28;20195;-67
2021/01/07 10:29:34;;;;;;;9.03;4.43;;;2.60;74.90;;;;;;5039682;28;20214;-66
2021/01/07 10:32:09;;;;;;;6.73;3.40;;;2.70;74.50;;;;;;5040305;28;20218;-66
2021/01/07 10:34:43;;;;;;;6.33;2.50;;;2.70;73.60;;;;;;5059936;22;20698;-67
2021/01/07 10:37:10;;;;;;;3.13;1.47;;;;;;;;;;5055137;28;20189;-67
2021/01/07 10:39:38;;;;;;;6.13;3.33;;;2.70;72.80;;;;;;5066109;22;20693;-66
2021/01/07 10:42:05;;;;;;;7.87;3.47;;;2.70;73.60;;;;;;5056479;23;20697;-66
2021/01/07 10:44:35;;;;;;;8.57;3.90;;;2.70;73.20;;;;;;5043223;28;20194;-66
2021/01/07 10:47:01;;;;;;;38.30;5.97;;;2.70;73.80;;;;;;5052332;22;20258;-67
2021/01/07 10:49:29;;;;;;;9.47;3.90;;;2.80;74.10;;;;;;5064851;28;20360;-66
2021/01/07 10:52:15;;;;;;;5.00;2.90;;;2.70;72.10;;;;;;5056533;28;20596;-69
2021/01/07 10:54:59;;;;;;;5.30;1.80;;;2.70;72.00;;;;;;5043342;22;20233;-66
2021/01/07 10:57:52;;;;;;;10.90;5.83;;;2.80;72.90;;;;;;5067613;23;20230;-66
2021/01/07 11:00:26;;;;;;;8.20;5.03;;;2.80;72.50;;;;;;5067970;23;20741;-67
2021/01/07 11:03:26;;;;;;;11.83;5.00;;;2.80;72.80;;;;;;5064998;28;20265;-67
2021/01/07 11:06:12;;;;;;;10.70;5.00;;;2.90;72.50;;;;;;5062373;28;20217;-64
2021/01/07 11:08:46;;;;;;;5.87;3.93;;;2.70;71.20;;;;;;5081364;23;20236;-64
2021/01/07 11:11:28;;;;;;;9.90;5.23;;;2.90;72.00;;;;;;5074861;22;20613;-64
2021/01/07 11:14:10;;;;;;;8.83;5.73;;;2.90;72.20;;;;;;5065322;23;20233;-64
2021/01/07 11:16:49;;;;;;;11.00;5.20;;;3.00;72.10;;;;;;5065262;23;20609;-68
2021/01/07 11:19:21;;;;;;;8.80;3.93;;;2.90;72.50;;;;;;5057906;22;20238;-67
2021/01/07 11:22:00;;;;;;;7.97;3.53;;;2.80;71.60;;;;;;5043424;28;20182;-65
2021/01/07 11:24:27;;;;;;;8.43;4.40;;;2.80;72.60;;;;;;5075341;22;20263;-65
2021/01/07 11:26:54;;;;;;;8.10;4.43;;;2.80;72.70;;;;;;5081042;28;20200;-63
2021/01/07 11:29:21;;;;;;;10.37;4.77;;;2.80;72.00;;;;;;5084188;28;20213;-62
2021/01/07 11:31:47;;;;;;;7.47;3.60;;;2.90;71.80;;;;;;5082096;28;23210;-62
2021/01/07 11:34:14;;;;;;;10.03;5.47;;;2.80;71.40;;;;;;5082099;28;20205;-65
2021/01/07 11:36:51;;;;;;;8.33;3.47;;;2.70;70.60;;;;;;5084232;23;21571;-65
2021/01/07 11:39:22;;;;;;;9.03;5.23;;;2.80;71.10;;;;;;5079068;28;20189;-65
2021/01/07 11:42:10;;;;;;;7.83;4.47;;;2.80;70.60;;;;;;5077785;23;20218;-65
2021/01/07 11:44:38;;;;;;;10.70;4.43;;;2.90;70.80;;;;;;5045532;22;20280;-66
2021/01/07 11:47:08;;;;;;;7.60;5.00;;;2.90;70.70;;;;;;5075471;22;20230;-66
2021/01/07 11:49:40;;;;;;;4.00;1.87;;;2.90;70.30;;;;;;5059657;28;20507;-63
2021/01/07 11:52:09;;;;;;;10.20;5.47;;;2.90;70.40;;;;;;5063521;28;20641;-65
2021/01/07 11:54:39;;;;;;;8.53;3.90;;;3.00;70.10;;;;;;5070284;22;20352;-64
2021/01/07 11:57:08;;;;;;;6.77;3.07;;;3.00;70.40;;;;;;5060946;28;20518;-65
2021/01/07 11:59:38;;;;;;;9.73;4.33;;;2.90;70.50;;;;;;5068948;22;20233;-63
2021/01/07 12:02:09;;;;;;;8.60;4.90;;;2.90;70.50;;;;;;5062212;28;20648;-66
2021/01/07 12:04:41;;;;;;;7.20;3.90;;;2.90;69.60;;;;;;5083633;22;20236;-63
2021/01/07 12:07:38;;;;;;;8.53;3.13;;;2.90;70.50;;;;;;5046232;28;20194;-66
2021/01/07 12:10:05;;;;;;;6.70;4.53;;;2.80;70.30;;;;;;5076752;23;20229;-66
2021/01/07 12:13:05;;;;;;;4.40;2.37;;;2.80;69.80;;;;;;5057700;28;20190;-66
2021/01/07 12:15:34;;;;;;;6.37;4.33;;;2.90;70.50;;;;;;5050124;23;20261;-67
2021/01/07 12:18:02;;;;;;;4.70;3.23;;;2.90;70.50;;;;;;5074894;23;20240;-68
2021/01/07 12:20:28;;;;;;;5.10;2.53;;;2.90;69.30;;;;;;5062401;22;20647;-66
2021/01/07 12:22:56;;;;;;;5.93;2.50;;;2.80;69.10;;;;;;5057383;28;20186;-67
2021/01/07 12:25:22;;;;;;;10.50;5.97;;;2.90;69.40;;;;;;5062380;23;20283;-67
2021/01/07 12:27:48;;;;;;;7.10;3.90;;;2.90;69.40;;;;;;5067187;28;20754;-67
2021/01/07 12:30:16;;;;;;;7.57;3.73;;;3.00;69.80;;;;;;5079417;23;20261;-66
2021/01/07 12:32:51;;;;;;;8.90;4.47;;;3.00;68.60;;;;;;5076643;23;20254;-66
2021/01/07 12:35:23;;;;;;;7.97;4.67;;;2.90;68.90;;;;;;5060451;23;20255;-66
2021/01/07 12:38:13;;;;;;;10.17;5.37;;;3.00;69.30;;;;;;5070076;22;20233;-66
2021/01/07 12:40:47;;;;;;;4.37;2.77;;;3.00;68.60;;;;;;5077026;28;20880;-65
2021/01/07 12:43:17;;;;;;;8.20;4.27;;;3.10;68.70;;;;;;5073464;23;20230;-66
2021/01/07 12:45:45;;;;;;;8.30;3.40;;;3.00;69.10;;;;;;5065227;28;20220;-66
2021/01/07 12:48:13;;;;;;;4.67;2.13;;;3.00;68.50;;;;;;5059225;28;20296;-66
2021/01/07 12:50:39;;;;;;;8.07;2.93;;;;;;;;;;5069273;23;20313;-65
2021/01/07 12:53:05;;;;;;;8.77;4.37;;;3.00;69.10;;;;;;5065597;28;20488;-66
2021/01/07 12:55:32;;;;;;;7.40;3.03;;;3.00;68.40;;;;;;5085954;22;20225;-66
2021/01/07 12:58:04;;;;;;;5.87;2.57;;;3.00;68.20;;;;;;5061088;28;20280;-65
2021/01/07 13:00:50;;;;;;;5.17;3.07;;;3.10;68.20;;;;;;5066262;23;20243;-66
2021/01/07 13:03:43;;;;;;;2.37;1.67;;;3.00;67.40;;;;;;5064698;28;20193;-66
2021/01/07 13:06:09;;;;;;;6.50;3.83;;;;;;;;;;5039322;28;20221;-66
2021/01/07 13:08:40;;;;;;;4.80;2.60;;;3.10;68.20;;;;;;5078867;22;20272;-66
2021/01/07 13:11:07;;;;;;;8.27;4.10;;;3.00;67.70;;;;;;5093901;22;20687;-66
2021/01/07 13:13:45;;;;;;;2.63;1.27;;;3.00;67.90;;;;;;5085465;28;20276;-65
2021/01/07 13:16:12;;;;;;;5.27;2.30;;;3.00;68.00;;;;;;5074034;22;20751;-65
2021/01/07 13:18:38;;;;;;;6.40;3.17;;;3.10;68.10;;;;;;5046068;22;20230;-65
2021/01/07 13:21:05;;;;;;;4.10;2.37;;;3.10;67.50;;;;;;5041727;28;20190;-65